sensor_id;sensor_type;location;lat;lon;timestamp;temperature;humidity
4411;DHT22;2218;51.408;7.208;2024-03-23T00:53:31;19.20;43.80
4411;DHT22;2218;51.408;7.208;2024-03-23T00:55:59;19.20;43.80
4411;DHT22;2218;51.408;7.208;2024-03-23T00:58:26;19.20;43.80
4411;DHT22;2218;51.408;7.208;2024-03-23T01:00:52;19.20;43.70
4411;DHT22;2218;51.408;7.208;2024-03-23T01:03:19;19.20;43.80
4411;DHT22;2218;51.408;7.208;2024-03-23T01:05:44;19.20;43.80
4411;DHT22;2218;51.408;7.208;2024-03-23T01:08:11;19.20;43.70
4411;DHT22;2218;51.408;7.208;2024-03-23T01:10:39;19.20;43.70
4411;DHT22;2218;51.408;7.208;2024-03-23T01:13:06;19.20;43.70
4411;DHT22;2218;51.408;7.208;2024-03-23T01:15:32;19.20;43.70
4411;DHT22;2218;51.408;7.208;2024-03-23T01:17:59;19.20;43.60
4411;DHT22;2218;51.408;7.208;2024-03-23T01:20:24;19.10;43.60
4411;DHT22;2218;51.408;7.208;2024-03-23T01:22:53;19.10;43.50
4411;DHT22;2218;51.408;7.208;2024-03-23T01:25:19;19.20;44.10
4411;DHT22;2218;51.408;7.208;2024-03-23T01:27:47;19.10;43.50
4411;DHT22;2218;51.408;7.208;2024-03-23T01:30:13;19.10;43.50
4411;DHT22;2218;51.408;7.208;2024-03-23T01:32:40;19.10;43.40
4411;DHT22;2218;51.408;7.208;2024-03-23T01:35:08;19.10;43.40
4411;DHT22;2218;51.408;7.208;2024-03-23T01:37:35;19.10;43.40
4411;DHT22;2218;51.408;7.208;2024-03-23T01:40:01;19.10;43.40
4411;DHT22;2218;51.408;7.208;2024-03-23T01:42:29;19.10;43.40
4411;DHT22;2218;51.408;7.208;2024-03-23T01:44:56;19.10;43.40
4411;DHT22;2218;51.408;7.208;2024-03-23T01:47:23;19.10;43.40
4411;DHT22;2218;51.408;7.208;2024-03-23T01:49:49;19.10;43.40
4411;DHT22;2218;51.408;7.208;2024-03-23T01:52:17;19.10;43.40
4411;DHT22;2218;51.408;7.208;2024-03-23T01:54:43;19.10;43.40
4411;DHT22;2218;51.408;7.208;2024-03-23T01:57:11;19.10;43.40
4411;DHT22;2218;51.408;7.208;2024-03-23T01:59:38;19.10;43.40
4411;DHT22;2218;51.408;7.208;2024-03-23T02:02:08;19.10;43.30
4411;DHT22;2218;51.408;7.208;2024-03-23T02:04:34;19.10;43.30
4411;DHT22;2218;51.408;7.208;2024-03-23T02:07:01;19.00;43.20
4411;DHT22;2218;51.408;7.208;2024-03-23T02:09:27;19.00;43.20
4411;DHT22;2218;51.408;7.208;2024-03-23T02:11:54;19.00;43.20
4411;DHT22;2218;51.408;7.208;2024-03-23T02:14:20;19.00;43.20
4411;DHT22;2218;51.408;7.208;2024-03-23T02:16:48;19.00;43.10
4411;DHT22;2218;51.408;7.208;2024-03-23T02:19:15;19.00;43.10
4411;DHT22;2218;51.408;7.208;2024-03-23T02:21:42;19.00;43.10
4411;DHT22;2218;51.408;7.208;2024-03-23T02:24:09;19.00;43.10
4411;DHT22;2218;51.408;7.208;2024-03-23T02:26:36;19.00;43.00
4411;DHT22;2218;51.408;7.208;2024-03-23T02:29:02;19.00;43.00
4411;DHT22;2218;51.408;7.208;2024-03-23T02:31:29;19.00;43.00
4411;DHT22;2218;51.408;7.208;2024-03-23T02:33:55;19.00;43.00
4411;DHT22;2218;51.408;7.208;2024-03-23T02:36:22;19.00;43.00
4411;DHT22;2218;51.408;7.208;2024-03-23T02:38:48;19.00;42.90
4411;DHT22;2218;51.408;7.208;2024-03-23T02:41:16;19.00;42.90
4411;DHT22;2218;51.408;7.208;2024-03-23T02:43:48;19.00;42.90
4411;DHT22;2218;51.408;7.208;2024-03-23T02:46:16;19.00;42.80
4411;DHT22;2218;51.408;7.208;2024-03-23T02:48:43;19.00;42.80
4411;DHT22;2218;51.408;7.208;2024-03-23T02:51:10;19.00;42.80
4411;DHT22;2218;51.408;7.208;2024-03-23T02:53:36;19.00;42.80
4411;DHT22;2218;51.408;7.208;2024-03-23T02:56:03;19.00;42.80
4411;DHT22;2218;51.408;7.208;2024-03-23T02:58:31;19.00;42.80
4411;DHT22;2218;51.408;7.208;2024-03-23T03:00:58;19.00;42.80
4411;DHT22;2218;51.408;7.208;2024-03-23T03:03:24;19.00;42.70
4411;DHT22;2218;51.408;7.208;2024-03-23T03:05:55;19.00;42.70
4411;DHT22;2218;51.408;7.208;2024-03-23T03:08:21;19.00;42.70
4411;DHT22;2218;51.408;7.208;2024-03-23T03:10:48;19.00;42.70
4411;DHT22;2218;51.408;7.208;2024-03-23T03:13:15;19.00;42.60
4411;DHT22;2218;51.408;7.208;2024-03-23T03:15:43;19.00;42.60
4411;DHT22;2218;51.408;7.208;2024-03-23T03:18:10;19.00;42.60
4411;DHT22;2218;51.408;7.208;2024-03-23T03:20:38;19.00;42.60
4411;DHT22;2218;51.408;7.208;2024-03-23T03:23:05;19.00;42.50
4411;DHT22;2218;51.408;7.208;2024-03-23T03:25:32;19.00;42.50
4411;DHT22;2218;51.408;7.208;2024-03-23T03:27:59;19.00;42.50
4411;DHT22;2218;51.408;7.208;2024-03-23T03:30:25;18.90;42.40
4411;DHT22;2218;51.408;7.208;2024-03-23T03:32:54;18.90;42.40
4411;DHT22;2218;51.408;7.208;2024-03-23T03:35:20;18.90;42.30
4411;DHT22;2218;51.408;7.208;2024-03-23T03:37:47;18.90;42.30
4411;DHT22;2218;51.408;7.208;2024-03-23T03:40:14;18.90;42.30
4411;DHT22;2218;51.408;7.208;2024-03-23T03:42:41;18.90;42.30
4411;DHT22;2218;51.408;7.208;2024-03-23T03:45:08;18.90;42.30
4411;DHT22;2218;51.408;7.208;2024-03-23T03:47:34;18.90;42.20
4411;DHT22;2218;51.408;7.208;2024-03-23T03:50:02;18.90;42.20
4411;DHT22;2218;51.408;7.208;2024-03-23T03:52:29;18.90;42.20
4411;DHT22;2218;51.408;7.208;2024-03-23T03:55:01;18.90;42.20
4411;DHT22;2218;51.408;7.208;2024-03-23T03:57:29;18.90;42.20
4411;DHT22;2218;51.408;7.208;2024-03-23T03:59:55;18.90;42.20
4411;DHT22;2218;51.408;7.208;2024-03-23T04:02:22;18.90;42.10
4411;DHT22;2218;51.408;7.208;2024-03-23T04:04:48;18.90;42.10
4411;DHT22;2218;51.408;7.208;2024-03-23T04:07:16;18.90;42.10
4411;DHT22;2218;51.408;7.208;2024-03-23T04:09:44;18.90;42.10
4411;DHT22;2218;51.408;7.208;2024-03-23T04:12:10;18.90;42.10
4411;DHT22;2218;51.408;7.208;2024-03-23T04:14:36;18.90;42.00
4411;DHT22;2218;51.408;7.208;2024-03-23T04:17:04;18.90;42.00
4411;DHT22;2218;51.408;7.208;2024-03-23T04:19:29;18.90;42.50
4411;DHT22;2218;51.408;7.208;2024-03-23T04:21:56;18.90;42.00
4411;DHT22;2218;51.408;7.208;2024-03-23T04:24:24;18.90;42.00
4411;DHT22;2218;51.408;7.208;2024-03-23T04:26:52;18.90;42.00
4411;DHT22;2218;51.408;7.208;2024-03-23T04:29:18;18.90;42.00
4411;DHT22;2218;51.408;7.208;2024-03-23T04:31:45;18.90;42.00
4411;DHT22;2218;51.408;7.208;2024-03-23T04:34:11;18.80;41.90
4411;DHT22;2218;51.408;7.208;2024-03-23T04:36:38;18.80;41.90
4411;DHT22;2218;51.408;7.208;2024-03-23T04:39:05;18.80;41.80
4411;DHT22;2218;51.408;7.208;2024-03-23T04:41:35;18.80;41.80
4411;DHT22;2218;51.408;7.208;2024-03-23T04:44:02;18.80;41.80
4411;DHT22;2218;51.408;7.208;2024-03-23T04:46:29;18.80;41.80
4411;DHT22;2218;51.408;7.208;2024-03-23T04:48:56;18.80;41.80
4411;DHT22;2218;51.408;7.208;2024-03-23T04:51:24;18.90;41.80
4411;DHT22;2218;51.408;7.208;2024-03-23T04:53:51;18.80;41.70
4411;DHT22;2218;51.408;7.208;2024-03-23T04:56:18;18.80;41.70
4411;DHT22;2218;51.408;7.208;2024-03-23T04:58:46;18.80;41.70
4411;DHT22;2218;51.408;7.208;2024-03-23T05:01:13;18.80;41.70
4411;DHT22;2218;51.408;7.208;2024-03-23T05:03:40;18.80;41.70
4411;DHT22;2218;51.408;7.208;2024-03-23T05:06:06;18.80;41.60
4411;DHT22;2218;51.408;7.208;2024-03-23T05:08:33;18.80;41.60
4411;DHT22;2218;51.408;7.208;2024-03-23T05:10:59;18.80;41.50
4411;DHT22;2218;51.408;7.208;2024-03-23T05:13:26;18.80;41.60
4411;DHT22;2218;51.408;7.208;2024-03-23T05:15:54;18.80;41.60
4411;DHT22;2218;51.408;7.208;2024-03-23T05:18:21;18.80;41.50
4411;DHT22;2218;51.408;7.208;2024-03-23T05:20:47;18.80;41.50
4411;DHT22;2218;51.408;7.208;2024-03-23T05:23:14;18.80;41.60
4411;DHT22;2218;51.408;7.208;2024-03-23T05:25:41;18.80;41.50
4411;DHT22;2218;51.408;7.208;2024-03-23T05:28:07;18.80;41.50
4411;DHT22;2218;51.408;7.208;2024-03-23T05:30:33;18.80;41.50
4411;DHT22;2218;51.408;7.208;2024-03-23T05:33:02;18.80;41.40
4411;DHT22;2218;51.408;7.208;2024-03-23T05:35:28;18.80;41.40
4411;DHT22;2218;51.408;7.208;2024-03-23T05:37:55;18.80;41.40
4411;DHT22;2218;51.408;7.208;2024-03-23T05:40:21;18.80;41.40
4411;DHT22;2218;51.408;7.208;2024-03-23T05:42:48;18.80;41.40
4411;DHT22;2218;51.408;7.208;2024-03-23T05:45:14;18.80;41.30
4411;DHT22;2218;51.408;7.208;2024-03-23T05:47:44;18.80;41.30
4411;DHT22;2218;51.408;7.208;2024-03-23T05:50:11;18.80;41.30
4411;DHT22;2218;51.408;7.208;2024-03-23T05:52:38;18.80;41.30
4411;DHT22;2218;51.408;7.208;2024-03-23T05:55:05;18.70;41.20
4411;DHT22;2218;51.408;7.208;2024-03-23T05:57:32;18.70;41.20
4411;DHT22;2218;51.408;7.208;2024-03-23T05:59:58;18.70;41.20
4411;DHT22;2218;51.408;7.208;2024-03-23T06:02:25;18.70;41.20
4411;DHT22;2218;51.408;7.208;2024-03-23T06:04:51;18.70;41.20
4411;DHT22;2218;51.408;7.208;2024-03-23T06:07:19;18.70;41.20
4411;DHT22;2218;51.408;7.208;2024-03-23T06:09:46;18.70;41.20
4411;DHT22;2218;51.408;7.208;2024-03-23T06:12:13;18.70;41.20
4411;DHT22;2218;51.408;7.208;2024-03-23T06:14:39;18.70;41.20
4411;DHT22;2218;51.408;7.208;2024-03-23T06:17:06;18.70;41.20
4411;DHT22;2218;51.408;7.208;2024-03-23T06:19:32;18.70;41.20
4411;DHT22;2218;51.408;7.208;2024-03-23T06:21:59;18.70;41.20
4411;DHT22;2218;51.408;7.208;2024-03-23T06:24:26;18.70;41.20
4411;DHT22;2218;51.408;7.208;2024-03-23T06:26:53;18.70;41.20
4411;DHT22;2218;51.408;7.208;2024-03-23T06:29:19;18.70;41.20
4411;DHT22;2218;51.408;7.208;2024-03-23T06:31:53;18.70;41.20
4411;DHT22;2218;51.408;7.208;2024-03-23T06:34:19;18.70;41.20
4411;DHT22;2218;51.408;7.208;2024-03-23T06:36:47;18.70;41.20
4411;DHT22;2218;51.408;7.208;2024-03-23T06:39:13;18.70;41.10
4411;DHT22;2218;51.408;7.208;2024-03-23T06:41:42;18.70;41.10
4411;DHT22;2218;51.408;7.208;2024-03-23T06:44:08;18.70;41.10
4411;DHT22;2218;51.408;7.208;2024-03-23T06:46:35;18.70;41.10
4411;DHT22;2218;51.408;7.208;2024-03-23T06:49:01;18.70;41.20
4411;DHT22;2218;51.408;7.208;2024-03-23T06:51:28;18.70;41.70
4411;DHT22;2218;51.408;7.208;2024-03-23T06:53:54;18.70;41.10
4411;DHT22;2218;51.408;7.208;2024-03-23T06:56:21;18.70;41.10
4411;DHT22;2218;51.408;7.208;2024-03-23T06:58:49;18.70;41.10
4411;DHT22;2218;51.408;7.208;2024-03-23T07:01:16;18.70;41.10
4411;DHT22;2218;51.408;7.208;2024-03-23T07:03:42;18.70;41.10
4411;DHT22;2218;51.408;7.208;2024-03-23T07:06:09;18.70;41.10
4411;DHT22;2218;51.408;7.208;2024-03-23T07:08:36;18.70;41.10
4411;DHT22;2218;51.408;7.208;2024-03-23T07:11:03;18.70;41.10
4411;DHT22;2218;51.408;7.208;2024-03-23T07:13:30;18.70;41.10
4411;DHT22;2218;51.408;7.208;2024-03-23T07:15:58;18.70;41.00
4411;DHT22;2218;51.408;7.208;2024-03-23T07:18:25;18.70;41.00
4411;DHT22;2218;51.408;7.208;2024-03-23T07:20:53;18.80;41.10
4411;DHT22;2218;51.408;7.208;2024-03-23T07:23:19;18.80;41.10
4411;DHT22;2218;51.408;7.208;2024-03-23T07:25:56;18.80;41.00
4411;DHT22;2218;51.408;7.208;2024-03-23T07:28:22;18.80;41.00
4411;DHT22;2218;51.408;7.208;2024-03-23T07:31:03;18.80;41.00
4411;DHT22;2218;51.408;7.208;2024-03-23T07:33:30;18.80;40.90
4411;DHT22;2218;51.408;7.208;2024-03-23T07:35:58;18.80;40.90
4411;DHT22;2218;51.408;7.208;2024-03-23T07:38:26;18.90;41.00
4411;DHT22;2218;51.408;7.208;2024-03-23T07:41:02;18.90;40.90
4411;DHT22;2218;51.408;7.208;2024-03-23T07:43:29;18.90;40.80
4411;DHT22;2218;51.408;7.208;2024-03-23T07:45:56;18.90;40.90
4411;DHT22;2218;51.408;7.208;2024-03-23T07:48:24;18.90;40.90
4411;DHT22;2218;51.408;7.208;2024-03-23T07:50:58;18.90;40.90
4411;DHT22;2218;51.408;7.208;2024-03-23T07:53:25;18.90;40.80
4411;DHT22;2218;51.408;7.208;2024-03-23T07:55:54;19.00;40.80
4411;DHT22;2218;51.408;7.208;2024-03-23T07:58:21;19.00;40.80
4411;DHT22;2218;51.408;7.208;2024-03-23T08:00:48;19.00;40.80
4411;DHT22;2218;51.408;7.208;2024-03-23T08:03:14;19.00;41.30
4411;DHT22;2218;51.408;7.208;2024-03-23T08:05:43;19.00;40.70
4411;DHT22;2218;51.408;7.208;2024-03-23T08:08:08;19.00;40.70
4411;DHT22;2218;51.408;7.208;2024-03-23T08:10:36;19.00;40.70
4411;DHT22;2218;51.408;7.208;2024-03-23T08:13:02;19.10;40.80
4411;DHT22;2218;51.408;7.208;2024-03-23T08:15:30;19.10;40.80
4411;DHT22;2218;51.408;7.208;2024-03-23T08:17:59;19.10;40.80
4411;DHT22;2218;51.408;7.208;2024-03-23T08:20:26;19.10;40.80
4411;DHT22;2218;51.408;7.208;2024-03-23T08:22:54;19.10;40.80
4411;DHT22;2218;51.408;7.208;2024-03-23T08:25:21;19.10;40.80
4411;DHT22;2218;51.408;7.208;2024-03-23T08:27:47;19.10;40.80
4411;DHT22;2218;51.408;7.208;2024-03-23T08:30:14;19.10;40.70
4411;DHT22;2218;51.408;7.208;2024-03-23T08:32:40;19.10;40.80
4411;DHT22;2218;51.408;7.208;2024-03-23T08:35:08;19.10;40.80
4411;DHT22;2218;51.408;7.208;2024-03-23T08:37:34;19.10;40.80
4411;DHT22;2218;51.408;7.208;2024-03-23T08:40:02;19.10;40.80
4411;DHT22;2218;51.408;7.208;2024-03-23T08:42:30;19.10;40.80
4411;DHT22;2218;51.408;7.208;2024-03-23T08:44:57;19.10;40.80
4411;DHT22;2218;51.408;7.208;2024-03-23T08:47:22;19.10;40.80
4411;DHT22;2218;51.408;7.208;2024-03-23T08:49:49;19.10;40.70
4411;DHT22;2218;51.408;7.208;2024-03-23T08:52:15;19.10;40.70
4411;DHT22;2218;51.408;7.208;2024-03-23T08:54:42;19.10;40.70
4411;DHT22;2218;51.408;7.208;2024-03-23T08:57:10;19.10;40.80
4411;DHT22;2218;51.408;7.208;2024-03-23T08:59:37;19.10;40.80
4411;DHT22;2218;51.408;7.208;2024-03-23T09:02:04;19.10;40.70
4411;DHT22;2218;51.408;7.208;2024-03-23T09:04:31;19.10;40.80
4411;DHT22;2218;51.408;7.208;2024-03-23T09:06:57;19.10;40.70
4411;DHT22;2218;51.408;7.208;2024-03-23T09:09:25;19.10;40.70
4411;DHT22;2218;51.408;7.208;2024-03-23T09:11:52;19.10;40.70
4411;DHT22;2218;51.408;7.208;2024-03-23T09:14:21;19.10;40.70
4411;DHT22;2218;51.408;7.208;2024-03-23T09:16:49;19.10;40.70
4411;DHT22;2218;51.408;7.208;2024-03-23T09:19:17;19.10;40.60
4411;DHT22;2218;51.408;7.208;2024-03-23T09:21:43;19.10;40.70
4411;DHT22;2218;51.408;7.208;2024-03-23T09:24:10;19.10;40.60
4411;DHT22;2218;51.408;7.208;2024-03-23T09:26:36;19.10;40.60
4411;DHT22;2218;51.408;7.208;2024-03-23T09:29:03;19.10;40.50
4411;DHT22;2218;51.408;7.208;2024-03-23T09:31:30;19.10;40.60
4411;DHT22;2218;51.408;7.208;2024-03-23T09:33:59;19.10;40.50
4411;DHT22;2218;51.408;7.208;2024-03-23T09:36:25;19.10;40.50
4411;DHT22;2218;51.408;7.208;2024-03-23T09:38:52;19.10;40.40
4411;DHT22;2218;51.408;7.208;2024-03-23T09:41:18;19.00;40.30
4411;DHT22;2218;51.408;7.208;2024-03-23T09:43:45;19.00;40.30
4411;DHT22;2218;51.408;7.208;2024-03-23T09:46:14;19.00;40.30
4411;DHT22;2218;51.408;7.208;2024-03-23T09:48:43;19.00;40.30
4411;DHT22;2218;51.408;7.208;2024-03-23T09:51:11;19.00;40.20
4411;DHT22;2218;51.408;7.208;2024-03-23T09:53:39;19.00;40.20
4411;DHT22;2218;51.408;7.208;2024-03-23T09:56:05;19.00;40.20
4411;DHT22;2218;51.408;7.208;2024-03-23T09:58:32;19.00;40.20
4411;DHT22;2218;51.408;7.208;2024-03-23T10:00:58;19.00;40.20
4411;DHT22;2218;51.408;7.208;2024-03-23T10:03:25;19.00;40.10
4411;DHT22;2218;51.408;7.208;2024-03-23T10:06:02;19.00;40.20
4411;DHT22;2218;51.408;7.208;2024-03-23T10:08:30;19.00;40.20
4411;DHT22;2218;51.408;7.208;2024-03-23T10:10:57;19.00;40.10
4411;DHT22;2218;51.408;7.208;2024-03-23T10:13:25;19.00;40.10
4411;DHT22;2218;51.408;7.208;2024-03-23T10:15:56;19.00;40.10
4411;DHT22;2218;51.408;7.208;2024-03-23T10:18:24;19.00;40.10
4411;DHT22;2218;51.408;7.208;2024-03-23T10:21:07;19.00;40.10
4411;DHT22;2218;51.408;7.208;2024-03-23T10:23:37;19.00;40.00
4411;DHT22;2218;51.408;7.208;2024-03-23T10:26:19;19.00;40.00
4411;DHT22;2218;51.408;7.208;2024-03-23T10:28:52;19.00;40.00
4411;DHT22;2218;51.408;7.208;2024-03-23T10:31:19;19.00;40.00
4411;DHT22;2218;51.408;7.208;2024-03-23T10:33:47;19.00;40.00
4411;DHT22;2218;51.408;7.208;2024-03-23T10:36:15;19.00;40.00
4411;DHT22;2218;51.408;7.208;2024-03-23T10:38:43;19.00;40.00
4411;DHT22;2218;51.408;7.208;2024-03-23T10:41:10;19.00;39.90
4411;DHT22;2218;51.408;7.208;2024-03-23T10:43:38;19.00;39.90
4411;DHT22;2218;51.408;7.208;2024-03-23T10:46:05;19.00;39.90
4411;DHT22;2218;51.408;7.208;2024-03-23T10:48:32;19.00;39.90
4411;DHT22;2218;51.408;7.208;2024-03-23T10:50:58;19.00;39.90
4411;DHT22;2218;51.408;7.208;2024-03-23T10:53:28;19.00;39.80
4411;DHT22;2218;51.408;7.208;2024-03-23T10:55:55;19.00;39.80
4411;DHT22;2218;51.408;7.208;2024-03-23T10:58:26;19.00;39.80
4411;DHT22;2218;51.408;7.208;2024-03-23T11:00:54;19.00;39.70
4411;DHT22;2218;51.408;7.208;2024-03-23T11:03:32;19.00;39.70
4411;DHT22;2218;51.408;7.208;2024-03-23T11:05:59;19.00;39.60
4411;DHT22;2218;51.408;7.208;2024-03-23T11:08:35;19.00;39.60
4411;DHT22;2218;51.408;7.208;2024-03-23T11:11:17;19.00;39.50
4411;DHT22;2218;51.408;7.208;2024-03-23T11:13:47;19.00;39.50
4411;DHT22;2218;51.408;7.208;2024-03-23T11:16:16;19.00;39.40
4411;DHT22;2218;51.408;7.208;2024-03-23T11:18:44;19.00;39.40
4411;DHT22;2218;51.408;7.208;2024-03-23T11:21:10;19.00;39.30
4411;DHT22;2218;51.408;7.208;2024-03-23T11:23:39;18.90;39.20
4411;DHT22;2218;51.408;7.208;2024-03-23T11:26:08;18.90;39.20
4411;DHT22;2218;51.408;7.208;2024-03-23T11:28:35;18.90;39.20
4411;DHT22;2218;51.408;7.208;2024-03-23T11:31:01;18.90;39.20
4411;DHT22;2218;51.408;7.208;2024-03-23T11:33:28;18.90;39.20
4411;DHT22;2218;51.408;7.208;2024-03-23T11:35:54;18.90;39.20
4411;DHT22;2218;51.408;7.208;2024-03-23T11:38:21;18.90;39.20
4411;DHT22;2218;51.408;7.208;2024-03-23T11:40:49;18.90;39.20
4411;DHT22;2218;51.408;7.208;2024-03-23T11:43:17;18.90;39.70
4411;DHT22;2218;51.408;7.208;2024-03-23T11:45:46;18.90;39.20
4411;DHT22;2218;51.408;7.208;2024-03-23T11:48:15;18.90;39.20
4411;DHT22;2218;51.408;7.208;2024-03-23T11:50:44;18.90;39.20
4411;DHT22;2218;51.408;7.208;2024-03-23T11:53:14;18.90;39.20
4411;DHT22;2218;51.408;7.208;2024-03-23T11:55:43;18.90;39.20
4411;DHT22;2218;51.408;7.208;2024-03-23T11:58:16;18.90;39.10
4411;DHT22;2218;51.408;7.208;2024-03-23T12:00:49;18.90;39.20
4411;DHT22;2218;51.408;7.208;2024-03-23T12:03:18;18.90;39.30
4411;DHT22;2218;51.408;7.208;2024-03-23T12:05:48;18.90;39.20
4411;DHT22;2218;51.408;7.208;2024-03-23T12:08:20;18.90;39.20
4411;DHT22;2218;51.408;7.208;2024-03-23T12:10:49;18.90;39.20
4411;DHT22;2218;51.408;7.208;2024-03-23T12:13:19;18.90;39.20
4411;DHT22;2218;51.408;7.208;2024-03-23T12:15:46;18.90;39.20
4411;DHT22;2218;51.408;7.208;2024-03-23T12:18:14;18.90;39.20
4411;DHT22;2218;51.408;7.208;2024-03-23T12:20:40;18.90;39.20
4411;DHT22;2218;51.408;7.208;2024-03-23T12:23:08;18.90;39.20
4411;DHT22;2218;51.408;7.208;2024-03-23T12:25:38;18.90;39.10
4411;DHT22;2218;51.408;7.208;2024-03-23T12:28:06;18.90;39.10
4411;DHT22;2218;51.408;7.208;2024-03-23T12:30:36;18.90;39.10
4411;DHT22;2218;51.408;7.208;2024-03-23T12:33:06;18.90;39.10
4411;DHT22;2218;51.408;7.208;2024-03-23T12:35:32;18.90;39.10
4411;DHT22;2218;51.408;7.208;2024-03-23T12:37:59;18.90;39.00
4411;DHT22;2218;51.408;7.208;2024-03-23T12:40:25;18.90;39.00
4411;DHT22;2218;51.408;7.208;2024-03-23T12:42:53;18.90;38.90
4411;DHT22;2218;51.408;7.208;2024-03-23T12:45:19;18.90;38.90
4411;DHT22;2218;51.408;7.208;2024-03-23T12:47:47;18.90;38.80
4411;DHT22;2218;51.408;7.208;2024-03-23T12:50:14;18.90;38.80
4411;DHT22;2218;51.408;7.208;2024-03-23T12:52:40;18.80;38.80
4411;DHT22;2218;51.408;7.208;2024-03-23T12:55:07;18.90;38.80
4411;DHT22;2218;51.408;7.208;2024-03-23T12:57:34;18.90;38.80
4411;DHT22;2218;51.408;7.208;2024-03-23T13:00:00;18.90;38.80
4411;DHT22;2218;51.408;7.208;2024-03-23T13:02:27;18.80;38.70
4411;DHT22;2218;51.408;7.208;2024-03-23T13:04:55;18.90;38.70
4411;DHT22;2218;51.408;7.208;2024-03-23T13:07:23;18.90;38.60
4411;DHT22;2218;51.408;7.208;2024-03-23T13:09:53;18.90;38.60
4411;DHT22;2218;51.408;7.208;2024-03-23T13:12:21;18.90;38.60
4411;DHT22;2218;51.408;7.208;2024-03-23T13:14:48;18.90;38.50
4411;DHT22;2218;51.408;7.208;2024-03-23T13:17:15;18.90;38.50
4411;DHT22;2218;51.408;7.208;2024-03-23T13:19:41;18.90;38.40
4411;DHT22;2218;51.408;7.208;2024-03-23T13:22:09;18.90;38.40
4411;DHT22;2218;51.408;7.208;2024-03-23T13:24:37;18.90;38.40
4411;DHT22;2218;51.408;7.208;2024-03-23T13:27:04;18.80;38.30
4411;DHT22;2218;51.408;7.208;2024-03-23T13:29:33;18.90;38.30
4411;DHT22;2218;51.408;7.208;2024-03-23T13:32:01;18.80;38.30
4411;DHT22;2218;51.408;7.208;2024-03-23T13:34:27;18.80;38.20
4411;DHT22;2218;51.408;7.208;2024-03-23T13:36:55;18.80;38.20
4411;DHT22;2218;51.408;7.208;2024-03-23T13:39:25;18.80;38.20
4411;DHT22;2218;51.408;7.208;2024-03-23T13:41:53;18.80;38.20
4411;DHT22;2218;51.408;7.208;2024-03-23T13:44:20;18.80;38.20
4411;DHT22;2218;51.408;7.208;2024-03-23T13:46:47;18.80;38.20
4411;DHT22;2218;51.408;7.208;2024-03-23T13:49:24;18.80;38.20
4411;DHT22;2218;51.408;7.208;2024-03-23T13:51:53;18.80;38.20
4411;DHT22;2218;51.408;7.208;2024-03-23T13:54:20;18.80;38.20
4411;DHT22;2218;51.408;7.208;2024-03-23T13:56:49;18.80;38.20
4411;DHT22;2218;51.408;7.208;2024-03-23T13:59:16;18.80;38.20
4411;DHT22;2218;51.408;7.208;2024-03-23T14:01:43;18.80;38.20
4411;DHT22;2218;51.408;7.208;2024-03-23T14:04:11;18.80;38.20
4411;DHT22;2218;51.408;7.208;2024-03-23T14:06:38;18.80;38.20
4411;DHT22;2218;51.408;7.208;2024-03-23T14:09:04;18.80;38.20
4411;DHT22;2218;51.408;7.208;2024-03-23T14:11:34;18.80;38.20
4411;DHT22;2218;51.408;7.208;2024-03-23T14:14:01;18.80;38.10
4411;DHT22;2218;51.408;7.208;2024-03-23T14:16:29;18.80;38.00
4411;DHT22;2218;51.408;7.208;2024-03-23T14:18:54;18.80;38.00
4411;DHT22;2218;51.408;7.208;2024-03-23T14:21:21;18.80;38.00
4411;DHT22;2218;51.408;7.208;2024-03-23T14:23:48;18.80;38.00
4411;DHT22;2218;51.408;7.208;2024-03-23T14:26:15;18.80;38.10
4411;DHT22;2218;51.408;7.208;2024-03-23T14:28:41;18.80;38.00
4411;DHT22;2218;51.408;7.208;2024-03-23T14:31:09;18.80;38.00
4411;DHT22;2218;51.408;7.208;2024-03-23T14:33:36;18.80;38.00
4411;DHT22;2218;51.408;7.208;2024-03-23T14:36:03;18.80;38.00
4411;DHT22;2218;51.408;7.208;2024-03-23T14:38:30;18.80;38.00
4411;DHT22;2218;51.408;7.208;2024-03-23T14:40:58;18.80;37.90
4411;DHT22;2218;51.408;7.208;2024-03-23T14:43:24;18.80;37.90
4411;DHT22;2218;51.408;7.208;2024-03-23T14:46:09;18.80;37.90
4411;DHT22;2218;51.408;7.208;2024-03-23T14:48:36;18.80;37.90
4411;DHT22;2218;51.408;7.208;2024-03-23T14:51:04;18.80;37.90
4411;DHT22;2218;51.408;7.208;2024-03-23T14:53:31;18.80;37.90
4411;DHT22;2218;51.408;7.208;2024-03-23T14:55:59;18.80;37.90
4411;DHT22;2218;51.408;7.208;2024-03-23T14:58:26;18.80;37.80
4411;DHT22;2218;51.408;7.208;2024-03-23T15:00:53;18.80;37.70
4411;DHT22;2218;51.408;7.208;2024-03-23T15:03:27;18.80;37.70
4411;DHT22;2218;51.408;7.208;2024-03-23T15:05:55;18.80;37.60
4411;DHT22;2218;51.408;7.208;2024-03-23T15:08:22;18.80;37.60
4411;DHT22;2218;51.408;7.208;2024-03-23T15:10:49;18.80;37.60
4411;DHT22;2218;51.408;7.208;2024-03-23T15:13:16;18.80;37.50
4411;DHT22;2218;51.408;7.208;2024-03-23T15:15:44;18.80;37.50
4411;DHT22;2218;51.408;7.208;2024-03-23T15:18:10;18.80;37.40
4411;DHT22;2218;51.408;7.208;2024-03-23T15:20:41;18.80;37.40
4411;DHT22;2218;51.408;7.208;2024-03-23T15:23:16;18.80;37.40
4411;DHT22;2218;51.408;7.208;2024-03-23T15:25:44;18.80;37.30
4411;DHT22;2218;51.408;7.208;2024-03-23T15:28:10;18.80;37.20
4411;DHT22;2218;51.408;7.208;2024-03-23T15:30:36;18.80;37.30
4411;DHT22;2218;51.408;7.208;2024-03-23T15:33:03;18.80;37.20
4411;DHT22;2218;51.408;7.208;2024-03-23T15:35:30;18.80;37.20
4411;DHT22;2218;51.408;7.208;2024-03-23T15:37:58;18.80;37.20
4411;DHT22;2218;51.408;7.208;2024-03-23T15:40:25;18.80;37.20
4411;DHT22;2218;51.408;7.208;2024-03-23T15:42:52;18.80;37.10
4411;DHT22;2218;51.408;7.208;2024-03-23T15:45:19;18.70;37.10
4411;DHT22;2218;51.408;7.208;2024-03-23T15:47:45;18.70;37.10
4411;DHT22;2218;51.408;7.208;2024-03-23T15:50:12;18.80;37.10
4411;DHT22;2218;51.408;7.208;2024-03-23T15:52:38;18.70;37.00
4411;DHT22;2218;51.408;7.208;2024-03-23T15:55:07;18.70;37.00
4411;DHT22;2218;51.408;7.208;2024-03-23T15:57:36;18.70;37.00
4411;DHT22;2218;51.408;7.208;2024-03-23T16:00:04;18.70;37.00
4411;DHT22;2218;51.408;7.208;2024-03-23T16:02:49;18.80;37.10
4411;DHT22;2218;51.408;7.208;2024-03-23T16:05:16;18.70;37.00
4411;DHT22;2218;51.408;7.208;2024-03-23T16:07:42;18.70;36.90
4411;DHT22;2218;51.408;7.208;2024-03-23T16:10:10;18.70;36.90
4411;DHT22;2218;51.408;7.208;2024-03-23T16:12:37;18.70;36.90
4411;DHT22;2218;51.408;7.208;2024-03-23T16:15:05;18.70;36.90
4411;DHT22;2218;51.408;7.208;2024-03-23T16:17:31;18.70;36.90
4411;DHT22;2218;51.408;7.208;2024-03-23T16:20:02;18.70;36.90
4411;DHT22;2218;51.408;7.208;2024-03-23T16:22:28;18.70;36.80
4411;DHT22;2218;51.408;7.208;2024-03-23T16:24:56;18.70;36.90
4411;DHT22;2218;51.408;7.208;2024-03-23T16:27:24;18.70;36.80
4411;DHT22;2218;51.408;7.208;2024-03-23T16:29:50;18.70;36.80
4411;DHT22;2218;51.408;7.208;2024-03-23T16:32:17;18.70;36.80
4411;DHT22;2218;51.408;7.208;2024-03-23T16:34:44;18.70;36.80
4411;DHT22;2218;51.408;7.208;2024-03-23T16:37:10;18.70;36.80
4411;DHT22;2218;51.408;7.208;2024-03-23T16:39:37;18.70;36.80
4411;DHT22;2218;51.408;7.208;2024-03-23T16:42:03;18.70;36.80
4411;DHT22;2218;51.408;7.208;2024-03-23T16:44:32;18.70;36.80
4411;DHT22;2218;51.408;7.208;2024-03-23T16:46:58;18.70;36.80
4411;DHT22;2218;51.408;7.208;2024-03-23T16:49:25;18.70;36.80
4411;DHT22;2218;51.408;7.208;2024-03-23T16:51:51;18.70;36.80
4411;DHT22;2218;51.408;7.208;2024-03-23T16:54:18;18.70;36.70
4411;DHT22;2218;51.408;7.208;2024-03-23T16:56:44;18.70;36.70